Time;durP1;ratioP1;P1;durP2;ratioP2;P2;SDS_P1;SDS_P2;PMS_P1;PMS_P2;Temp;Humidity;BMP_temperature;BMP_pressure;BME280_temperature;BME280_humidity;BME280_pressure;Samples;Min_cycle;Max_cycle;Signal;HPM_P1;HPM_P2
2021/05/13 00:00:55;;;;;;;11.73;3.83;;;;;;;;;;5085036;28;20380;-68
2021/05/13 00:03:21;;;;;;;12.25;3.47;;;;;;;;;;5070808;28;20379;-68
2021/05/13 00:05:47;;;;;;;10.55;3.47;;;;;;;;;;5074570;28;20407;-68
2021/05/13 00:08:13;;;;;;;11.43;3.88;;;;;;;;;;5082462;28;20409;-67
2021/05/13 00:10:39;;;;;;;12.48;3.38;;;;;;;;;;5088665;28;20402;-67
2021/05/13 00:13:06;;;;;;;10.13;3.50;;;;;;;;;;5070782;28;20448;-67
2021/05/13 00:15:41;;;;;;;11.93;3.72;;;;;;;;;;5077559;28;20392;-68
2021/05/13 00:18:08;;;;;;;13.27;3.28;;;;;;;;;;5081144;28;20441;-69
2021/05/13 00:20:41;;;;;;;10.48;3.33;;;;;;;;;;5083885;28;20393;-67
2021/05/13 00:23:08;;;;;;;8.73;3.17;;;;;;;;;;5088357;28;20453;-68
2021/05/13 00:25:36;;;;;;;11.90;3.55;;;;;;;;;;5084747;28;20405;-67
2021/05/13 00:28:03;;;;;;;9.13;3.45;;;;;;;;;;5088815;28;20841;-67
2021/05/13 00:30:29;;;;;;;8.63;3.33;;;;;;;;;;5069965;28;20457;-68
2021/05/13 00:32:55;;;;;;;10.40;3.13;;;;;;;;;;5088800;28;20715;-68
2021/05/13 00:35:22;;;;;;;8.35;3.15;;;;;;;;;;5076553;28;20400;-67
2021/05/13 00:37:48;;;;;;;9.70;3.40;;;;;;;;;;5078364;28;20409;-68
2021/05/13 00:40:15;;;;;;;10.17;3.33;;;;;;;;;;5077040;28;20394;-68
2021/05/13 00:42:41;;;;;;;8.67;3.13;;;;;;;;;;5089293;28;20473;-67
2021/05/13 00:45:08;;;;;;;10.65;3.30;;;;;;;;;;5087896;28;20466;-67
2021/05/13 00:47:37;;;;;;;10.23;3.70;;;;;;;;;;5077455;28;20397;-67
2021/05/13 00:50:04;;;;;;;11.50;3.42;;;;;;;;;;5082519;28;20408;-67
2021/05/13 00:52:30;;;;;;;11.87;3.73;;;;;;;;;;5076401;28;20384;-67
2021/05/13 00:54:56;;;;;;;11.23;3.20;;;;;;;;;;5069388;28;20426;-68
2021/05/13 00:57:22;;;;;;;12.13;3.25;;;;;;;;;;5087379;28;20767;-68
2021/05/13 00:59:49;;;;;;;12.68;3.70;;;;;;;;;;5086218;28;20418;-67
2021/05/13 01:02:15;;;;;;;11.13;3.20;;;;;;;;;;5085772;28;20411;-68
2021/05/13 01:04:42;;;;;;;9.60;3.30;;;;;;;;;;5086874;28;20394;-68
2021/05/13 01:07:08;;;;;;;10.00;3.42;;;;;;;;;;5078499;28;20379;-68
2021/05/13 01:09:34;;;;;;;8.37;3.00;;;;;;;;;;5069842;28;20479;-67
2021/05/13 01:12:08;;;;;;;9.68;3.10;;;;;;;;;;5088681;28;20385;-67
2021/05/13 01:19:34;;;;;;;10.90;3.35;;;;;;;;;;5073701;28;20958;-68
2021/05/13 01:22:00;;;;;;;8.30;3.33;;;;;;;;;;5070940;28;20472;-68
2021/05/13 01:24:27;;;;;;;10.35;3.08;;;;;;;;;;5070605;28;21555;-68
2021/05/13 01:26:53;;;;;;;8.30;3.30;;;;;;;;;;5083619;28;20400;-67
2021/05/13 01:29:20;;;;;;;9.63;3.35;;;;;;;;;;5078854;28;20408;-68
2021/05/13 01:31:47;;;;;;;10.93;3.00;;;;;;;;;;5087397;28;20434;-68
2021/05/13 01:34:13;;;;;;;7.90;2.90;;;;;;;;;;5087505;28;20453;-68
2021/05/13 01:36:39;;;;;;;9.30;3.10;;;;;;;;;;5070499;28;20395;-67
2021/05/13 01:39:06;;;;;;;8.35;2.97;;;;;;;;;;5076773;28;20892;-68
2021/05/13 01:41:33;;;;;;;8.38;2.97;;;;;;;;;;5089098;28;20401;-67
2021/05/13 01:43:59;;;;;;;8.60;3.25;;;;;;;;;;5082141;28;20457;-68
2021/05/13 01:46:25;;;;;;;7.75;2.75;;;;;;;;;;5073187;28;20810;-68
2021/05/13 01:48:51;;;;;;;;;;;;;;;;;;5076450;28;20840;-67
2021/05/13 01:51:17;;;;;;;8.38;2.72;;;;;;;;;;5090556;28;20386;-67
2021/05/13 01:53:43;;;;;;;6.50;2.40;;;;;;;;;;5091341;28;20418;-67
2021/05/13 01:56:10;;;;;;;7.50;2.60;;;;;;;;;;5091928;28;20375;-68
2021/05/13 01:58:36;;;;;;;7.45;2.50;;;;;;;;;;5088935;28;20446;-67
2021/05/13 02:01:02;;;;;;;;;;;;;;;;;;5079182;28;20494;-67
2021/05/13 02:03:27;;;;;;;;;;;;;;;;;;5071800;28;20494;-67
2021/05/13 02:05:54;;;;;;;6.65;2.25;;;;;;;;;;5071885;28;20849;-67
2021/05/13 02:08:20;;;;;;;5.50;2.00;;;;;;;;;;5071584;28;20389;-67
2021/05/13 02:10:47;;;;;;;4.40;1.90;;;;;;;;;;5084323;28;20423;-69
2021/05/13 02:13:13;;;;;;;5.35;1.75;;;;;;;;;;5112214;28;20365;-68
2021/05/13 02:15:39;;;;;;;5.60;1.70;;;;;;;;;;5096159;28;20403;-67
2021/05/13 02:18:05;;;;;;;7.95;1.95;;;;;;;;;;5077743;28;20436;-67
2021/05/13 02:20:31;;;;;;;4.40;1.77;;;;;;;;;;5082893;28;20433;-68
2021/05/13 02:22:58;;;;;;;4.45;1.70;;;;;;;;;;5072293;28;20868;-67
2021/05/13 02:25:27;;;;;;;4.30;1.90;;;;;;;;;;5088224;28;20443;-67
2021/05/13 02:27:53;;;;;;;4.70;1.50;;;;;;;;;;5091626;28;20375;-67
2021/05/13 02:30:19;;;;;;;4.47;1.73;;;;;;;;;;5083999;28;20433;-67
2021/05/13 02:32:45;;;;;;;3.45;1.50;;;;;;;;;;5071813;28;20371;-67
2021/05/13 02:35:12;;;;;;;4.17;1.50;;;;;;;;;;5082361;28;20432;-67
2021/05/13 02:37:38;;;;;;;2.85;1.40;;;;;;;;;;5083619;28;20438;-67
2021/05/13 02:40:04;;;;;;;2.88;1.38;;;;;;;;;;5083112;28;20402;-68
2021/05/13 02:42:30;;;;;;;4.60;1.35;;;;;;;;;;5089470;28;20477;-67
2021/05/13 02:44:56;;;;;;;2.50;1.20;;;;;;;;;;5088372;28;20409;-67
2021/05/13 02:47:22;;;;;;;3.47;1.25;;;;;;;;;;5082514;28;20749;-68
2021/05/13 02:49:48;;;;;;;3.50;1.20;;;;;;;;;;5080288;28;20395;-67
2021/05/13 02:52:14;;;;;;;2.10;1.23;;;;;;;;;;5090082;28;20468;-67
2021/05/13 02:54:40;;;;;;;3.38;1.42;;;;;;;;;;5073303;28;20424;-67
2021/05/13 02:57:06;;;;;;;2.55;1.40;;;;;;;;;;5071015;28;20375;-67
2021/05/13 03:02:11;;;;;;;3.78;1.50;;;;;;;;;;5089875;28;20463;-67
2021/05/13 03:04:37;;;;;;;3.30;1.50;;;;;;;;;;5090600;28;20439;-67
2021/05/13 03:07:03;;;;;;;3.05;1.55;;;;;;;;;;5091163;28;20374;-68
2021/05/13 03:09:29;;;;;;;3.63;1.73;;;;;;;;;;5074875;28;20387;-67
2021/05/13 03:11:55;;;;;;;3.85;1.70;;;;;;;;;;5078099;28;20800;-67
2021/05/13 03:14:22;;;;;;;3.97;1.92;;;;;;;;;;5090148;28;20421;-67
2021/05/13 03:16:48;;;;;;;3.83;2.20;;;;;;;;;;5074408;28;20400;-67
2021/05/13 03:19:20;;;;;;;4.03;1.70;;;;;;;;;;5081118;28;20404;-67
2021/05/13 03:21:47;;;;;;;4.53;2.22;;;;;;;;;;5074692;28;20476;-67
2021/05/13 03:24:26;;;;;;;4.27;2.20;;;;;;;;;;5070449;28;20463;-67
2021/05/13 03:29:19;;;;;;;4.72;2.00;;;;;;;;;;5080455;28;20428;-67
2021/05/13 03:31:45;;;;;;;4.28;2.15;;;;;;;;;;5085623;28;20511;-68
2021/05/13 03:34:11;;;;;;;7.03;2.40;;;;;;;;;;5083594;28;21215;-67
2021/05/13 03:36:37;;;;;;;3.72;2.08;;;;;;;;;;5088741;28;20394;-67
2021/05/13 03:39:05;;;;;;;3.78;2.00;;;;;;;;;;5089534;28;20424;-67
2021/05/13 03:41:31;;;;;;;3.92;1.80;;;;;;;;;;5089057;28;20479;-67
2021/05/13 03:43:57;;;;;;;4.78;1.75;;;;;;;;;;5089273;28;20461;-68
2021/05/13 03:46:23;;;;;;;4.28;1.58;;;;;;;;;;5076421;28;20509;-67
2021/05/13 03:48:49;;;;;;;6.32;1.90;;;;;;;;;;5077357;28;20414;-68
2021/05/13 03:51:16;;;;;;;4.20;1.70;;;;;;;;;;5085486;28;20763;-67
2021/05/13 03:53:42;;;;;;;3.67;1.80;;;;;;;;;;5089293;28;20502;-68
2021/05/13 03:56:08;;;;;;;4.93;1.77;;;;;;;;;;5078876;28;20483;-67
2021/05/13 03:58:40;;;;;;;6.47;1.85;;;;;;;;;;5087395;28;20382;-67
2021/05/13 04:01:12;;;;;;;3.42;1.60;;;;;;;;;;5082149;28;20513;-67
2021/05/13 04:03:38;;;;;;;3.50;1.60;;;;;;;;;;5077641;28;21143;-67
2021/05/13 04:06:04;;;;;;;3.92;1.80;;;;;;;;;;5084776;28;20394;-67
2021/05/13 04:08:30;;;;;;;4.43;1.83;;;;;;;;;;5089644;28;20874;-67
2021/05/13 04:10:56;;;;;;;3.78;2.00;;;;;;;;;;5086962;28;20404;-68
2021/05/13 04:13:24;;;;;;;3.00;1.50;;;;;;;;;;5069316;28;20916;-67
2021/05/13 04:15:50;;;;;;;5.63;1.95;;;;;;;;;;5081443;28;20404;-67
2021/05/13 04:18:16;;;;;;;4.10;1.90;;;;;;;;;;5069484;28;20721;-67
2021/05/13 04:20:42;;;;;;;3.67;1.70;;;;;;;;;;5080692;28;20424;-67
2021/05/13 04:23:09;;;;;;;4.18;1.60;;;;;;;;;;5068463;28;20384;-67
2021/05/13 04:25:35;;;;;;;3.93;1.90;;;;;;;;;;5069140;28;20467;-68
2021/05/13 04:28:01;;;;;;;2.88;1.60;;;;;;;;;;5070218;28;20404;-67
2021/05/13 04:30:27;;;;;;;5.15;2.00;;;;;;;;;;5068996;28;20388;-69
2021/05/13 04:32:53;;;;;;;5.25;2.20;;;;;;;;;;5069785;28;20400;-67
2021/05/13 04:35:19;;;;;;;4.45;2.15;;;;;;;;;;5087628;28;20431;-67
2021/05/13 04:37:45;;;;;;;5.03;2.10;;;;;;;;;;5084355;28;20410;-67
2021/05/13 04:40:12;;;;;;;4.90;1.80;;;;;;;;;;5087745;28;20493;-68
2021/05/13 04:42:38;;;;;;;5.05;2.10;;;;;;;;;;5088809;28;20402;-67
2021/05/13 04:45:04;;;;;;;5.40;2.30;;;;;;;;;;5088454;28;20380;-67
2021/05/13 04:50:09;;;;;;;5.78;2.33;;;;;;;;;;5082652;28;20440;-67
2021/05/13 04:52:36;;;;;;;4.00;1.90;;;;;;;;;;5082943;28;20485;-68
2021/05/13 04:55:02;;;;;;;5.07;1.83;;;;;;;;;;5085824;28;20436;-67
2021/05/13 04:57:28;;;;;;;4.53;1.73;;;;;;;;;;5087320;28;20940;-67
2021/05/13 04:59:55;;;;;;;4.95;1.90;;;;;;;;;;5088305;28;20536;-67
2021/05/13 05:02:21;;;;;;;6.18;1.60;;;;;;;;;;5079876;28;20410;-68
2021/05/13 05:04:47;;;;;;;4.93;1.80;;;;;;;;;;5067560;28;20413;-67
2021/05/13 05:07:13;;;;;;;4.50;1.65;;;;;;;;;;5079883;28;20399;-67
2021/05/13 05:09:39;;;;;;;3.67;1.67;;;;;;;;;;5068869;28;20384;-67
2021/05/13 05:12:07;;;;;;;5.43;1.70;;;;;;;;;;5080760;28;20742;-67
2021/05/13 05:14:33;;;;;;;3.25;1.63;;;;;;;;;;5078897;28;20501;-67
2021/05/13 05:16:59;;;;;;;4.18;1.85;;;;;;;;;;5081468;28;20390;-67
2021/05/13 05:19:25;;;;;;;3.90;1.90;;;;;;;;;;5088997;28;20454;-67
2021/05/13 05:21:51;;;;;;;5.15;2.17;;;;;;;;;;5085343;28;20399;-67
2021/05/13 05:24:17;;;;;;;5.63;2.20;;;;;;;;;;5068639;28;20902;-67
2021/05/13 05:26:43;;;;;;;5.97;2.47;;;;;;;;;;5068866;28;20371;-67
2021/05/13 05:29:09;;;;;;;6.85;2.70;;;;;;;;;;5070692;28;20368;-67
2021/05/13 05:31:35;;;;;;;7.07;2.92;;;;;;;;;;5076111;28;20904;-67
2021/05/13 05:34:01;;;;;;;7.10;3.10;;;;;;;;;;5087433;28;20422;-67
2021/05/13 05:36:28;;;;;;;8.68;2.83;;;;;;;;;;5086941;28;20825;-67
2021/05/13 05:38:55;;;;;;;6.82;2.90;;;;;;;;;;5070215;28;20443;-67
2021/05/13 05:41:23;;;;;;;5.40;2.77;;;;;;;;;;5069722;28;20403;-67
2021/05/13 05:43:49;;;;;;;6.45;3.13;;;;;;;;;;5082022;28;20405;-67
2021/05/13 05:46:15;;;;;;;7.43;3.13;;;;;;;;;;5070262;28;20406;-67
2021/05/13 05:48:41;;;;;;;8.07;3.17;;;;;;;;;;5072111;28;20408;-67
2021/05/13 05:51:07;;;;;;;7.75;3.38;;;;;;;;;;5083118;28;20416;-67
2021/05/13 05:53:33;;;;;;;10.85;3.50;;;;;;;;;;5083137;28;20410;-67
2021/05/13 05:55:59;;;;;;;7.23;3.20;;;;;;;;;;5078324;28;20393;-67
2021/05/13 05:58:25;;;;;;;6.93;3.17;;;;;;;;;;5076020;28;20492;-67
2021/05/13 06:00:51;;;;;;;8.90;3.40;;;;;;;;;;5067353;28;20473;-67
2021/05/13 06:03:17;;;;;;;7.53;3.57;;;;;;;;;;5080367;28;20406;-67
2021/05/13 06:05:43;;;;;;;7.82;3.35;;;;;;;;;;5073368;28;20406;-67
2021/05/13 06:08:11;;;;;;;6.70;3.03;;;;;;;;;;5075422;28;20961;-67
2021/05/13 06:10:37;;;;;;;5.75;2.90;;;;;;;;;;5079861;28;20405;-68
2021/05/13 06:13:06;;;;;;;9.60;3.80;;;;;;;;;;5084788;28;20433;-67
2021/05/13 06:15:32;;;;;;;5.88;3.22;;;;;;;;;;5081428;28;20417;-67
2021/05/13 06:17:58;;;;;;;8.68;3.80;;;;;;;;;;5080178;28;22106;-67
2021/05/13 06:20:25;;;;;;;9.05;4.10;;;;;;;;;;5074180;28;20410;-67
2021/05/13 06:22:52;;;;;;;8.52;4.88;;;;;;;;;;5077876;28;21228;-67
2021/05/13 06:25:19;;;;;;;12.13;7.55;;;;;;;;;;5075892;28;20391;-69
2021/05/13 06:27:45;;;;;;;14.15;8.18;;;;;;;;;;5076790;28;20402;-68
2021/05/13 06:30:11;;;;;;;10.82;6.72;;;;;;;;;;5075104;28;20397;-67
2021/05/13 06:32:37;;;;;;;12.88;7.28;;;;;;;;;;5082210;28;20394;-66
2021/05/13 06:35:04;;;;;;;11.25;7.35;;;;;;;;;;5073444;28;20729;-67
2021/05/13 06:37:30;;;;;;;10.98;7.40;;;;;;;;;;5078691;28;20522;-68
2021/05/13 06:39:56;;;;;;;13.13;8.07;;;;;;;;;;5085104;28;20426;-69
2021/05/13 06:42:22;;;;;;;13.95;8.27;;;;;;;;;;5081949;28;20476;-67
2021/05/13 06:44:48;;;;;;;13.07;7.65;;;;;;;;;;5080826;28;20394;-67
2021/05/13 06:47:14;;;;;;;15.65;9.85;;;;;;;;;;5077104;28;20396;-68
2021/05/13 06:49:41;;;;;;;15.45;11.15;;;;;;;;;;5076458;28;20404;-68
2021/05/13 06:52:07;;;;;;;17.38;11.75;;;;;;;;;;5087143;28;20378;-69
2021/05/13 06:54:33;;;;;;;16.42;10.73;;;;;;;;;;5070746;28;20933;-68
2021/05/13 06:56:59;;;;;;;16.80;9.70;;;;;;;;;;5074259;28;20834;-67
2021/05/13 06:59:26;;;;;;;15.40;10.13;;;;;;;;;;5090690;28;20366;-67
2021/05/13 07:01:54;;;;;;;14.10;9.80;;;;;;;;;;5078035;28;20472;-67
2021/05/13 07:04:21;;;;;;;16.10;9.70;;;;;;;;;;5080527;28;20890;-68
2021/05/13 07:06:47;;;;;;;12.88;10.00;;;;;;;;;;5083750;28;20446;-67
2021/05/13 07:09:13;;;;;;;16.05;10.60;;;;;;;;;;5078643;28;20437;-67
2021/05/13 07:11:39;;;;;;;14.90;10.77;;;;;;;;;;5081868;28;20399;-67
2021/05/13 07:14:05;;;;;;;15.05;10.75;;;;;;;;;;5081093;28;20804;-67
2021/05/13 07:16:33;;;;;;;16.17;11.20;;;;;;;;;;5083936;28;20437;-67
2021/05/13 07:18:59;;;;;;;14.05;10.63;;;;;;;;;;5072327;28;20400;-67
2021/05/13 07:21:25;;;;;;;15.52;10.57;;;;;;;;;;5080825;28;20397;-67
2021/05/13 07:23:52;;;;;;;16.17;10.67;;;;;;;;;;5076908;28;20792;-70
2021/05/13 07:26:18;;;;;;;13.52;10.32;;;;;;;;;;5079721;28;20471;-67
2021/05/13 07:28:45;;;;;;;16.60;11.13;;;;;;;;;;5081449;28;20475;-67
2021/05/13 07:31:11;;;;;;;18.88;11.20;;;;;;;;;;5072810;28;20400;-67
2021/05/13 07:33:37;;;;;;;19.83;11.00;;;;;;;;;;5075514;28;20460;-68
2021/05/13 07:36:04;;;;;;;16.23;10.77;;;;;;;;;;5077733;28;20395;-67
2021/05/13 07:38:30;;;;;;;17.27;11.10;;;;;;;;;;5079096;28;20894;-67
2021/05/13 07:40:56;;;;;;;19.25;10.95;;;;;;;;;;5079941;28;21163;-67
2021/05/13 07:43:22;;;;;;;17.02;11.52;;;;;;;;;;5081811;28;20390;-67
2021/05/13 07:45:49;;;;;;;16.00;11.60;;;;;;;;;;5079167;28;20705;-67
2021/05/13 07:48:15;;;;;;;17.77;11.25;;;;;;;;;;5070296;28;20778;-67
2021/05/13 07:50:41;;;;;;;17.07;10.90;;;;;;;;;;5069841;28;20933;-67
2021/05/13 07:53:07;;;;;;;15.70;10.60;;;;;;;;;;5071524;28;20417;-67
2021/05/13 07:55:34;;;;;;;16.17;11.35;;;;;;;;;;5070937;28;20423;-67
2021/05/13 07:58:00;;;;;;;15.10;11.27;;;;;;;;;;5079745;28;20675;-67
2021/05/13 08:00:26;;;;;;;16.73;11.97;;;;;;;;;;5073638;28;20913;-67
2021/05/13 08:02:52;;;;;;;17.05;11.80;;;;;;;;;;5082732;28;20485;-67
2021/05/13 08:05:18;;;;;;;17.17;12.52;;;;;;;;;;5074502;28;20727;-67
2021/05/13 08:07:44;;;;;;;19.05;12.43;;;;;;;;;;5077514;28;20411;-67
2021/05/13 08:10:10;;;;;;;16.13;11.27;;;;;;;;;;5072282;28;20433;-68
2021/05/13 08:12:36;;;;;;;14.88;11.57;;;;;;;;;;5069573;28;20418;-67
2021/05/13 08:15:04;;;;;;;17.27;12.20;;;;;;;;;;5072568;28;20418;-67
2021/05/13 08:17:30;;;;;;;15.23;11.27;;;;;;;;;;5073149;28;20392;-67
2021/05/13 08:19:56;;;;;;;16.38;11.35;;;;;;;;;;5075777;28;20906;-68
2021/05/13 08:22:22;;;;;;;17.48;11.27;;;;;;;;;;5079681;28;20398;-69
2021/05/13 08:24:48;;;;;;;18.05;12.05;;;;;;;;;;5078761;28;20405;-67
2021/05/13 08:27:14;;;;;;;15.85;11.15;;;;;;;;;;5069558;28;20454;-67
2021/05/13 08:29:40;;;;;;;14.32;10.73;;;;;;;;;;5075340;28;20419;-67
2021/05/13 08:32:06;;;;;;;14.85;10.25;;;;;;;;;;5071248;28;21130;-67
2021/05/13 08:34:33;;;;;;;13.80;10.05;;;;;;;;;;5075168;28;20470;-67
2021/05/13 08:37:01;;;;;;;16.02;10.13;;;;;;;;;;5078233;28;22774;-67
2021/05/13 08:39:27;;;;;;;13.95;9.95;;;;;;;;;;5072876;28;21092;-67
2021/05/13 08:41:53;;;;;;;14.57;11.25;;;;;;;;;;5080410;28;20393;-67
2021/05/13 08:44:20;;;;;;;15.67;11.03;;;;;;;;;;5076271;28;20394;-67
2021/05/13 08:46:47;;;;;;;14.23;10.95;;;;;;;;;;5075281;28;20489;-67
2021/05/13 08:49:13;;;;;;;15.73;11.13;;;;;;;;;;5075082;28;20405;-68
2021/05/13 08:51:39;;;;;;;14.45;10.93;;;;;;;;;;5075375;28;20461;-68
2021/05/13 08:54:05;;;;;;;15.35;11.90;;;;;;;;;;5070940;28;20454;-69
2021/05/13 08:56:32;;;;;;;17.05;12.18;;;;;;;;;;5073507;28;20437;-68
2021/05/13 08:59:05;;;;;;;16.45;11.82;;;;;;;;;;5068792;28;20411;-68
2021/05/13 09:01:32;;;;;;;13.63;10.98;;;;;;;;;;5078085;28;20401;-68
2021/05/13 09:03:59;;;;;;;14.33;11.10;;;;;;;;;;5081197;28;20398;-67
2021/05/13 09:06:34;;;;;;;15.48;11.07;;;;;;;;;;5082452;28;20443;-67
2021/05/13 09:09:13;;;;;;;14.87;10.93;;;;;;;;;;5073416;28;20400;-68
2021/05/13 09:11:48;;;;;;;14.55;10.60;;;;;;;;;;5074188;28;20413;-67
2021/05/13 09:14:20;;;;;;;16.17;10.63;;;;;;;;;;5075958;28;20431;-69
2021/05/13 09:16:49;;;;;;;14.30;9.60;;;;;;;;;;5079048;28;20412;-67
2021/05/13 09:19:32;;;;;;;13.77;9.80;;;;;;;;;;5074665;28;20574;-67
2021/05/13 09:22:07;;;;;;;12.68;9.55;;;;;;;;;;5078797;28;20743;-66
2021/05/13 09:24:45;;;;;;;14.45;10.50;;;;;;;;;;5085540;28;20420;-67
2021/05/13 09:27:24;;;;;;;16.05;10.40;;;;;;;;;;5079894;28;20736;-68
2021/05/13 09:30:12;;;;;;;13.05;9.85;;;;;;;;;;5085936;28;20927;-67
2021/05/13 09:32:39;;;;;;;13.20;8.93;;;;;;;;;;5088439;28;20386;-67
2021/05/13 09:35:10;;;;;;;11.23;8.20;;;;;;;;;;5088848;28;20467;-68
2021/05/13 09:37:37;;;;;;;13.90;8.65;;;;;;;;;;5088392;28;20445;-68
2021/05/13 09:40:03;;;;;;;13.15;8.25;;;;;;;;;;5077321;28;20413;-68
2021/05/13 09:42:29;;;;;;;11.40;7.65;;;;;;;;;;5071778;28;20397;-68
2021/05/13 09:44:55;;;;;;;10.55;7.78;;;;;;;;;;5077508;28;20909;-68
2021/05/13 09:47:22;;;;;;;10.90;6.90;;;;;;;;;;5083428;28;20775;-68
2021/05/13 09:49:55;;;;;;;10.32;6.88;;;;;;;;;;5077561;28;20399;-68
2021/05/13 09:52:40;;;;;;;12.15;6.95;;;;;;;;;;5080254;28;20405;-68
2021/05/13 09:55:26;;;;;;;11.70;7.40;;;;;;;;;;5072460;28;21074;-67
2021/05/13 09:57:52;;;;;;;13.65;8.35;;;;;;;;;;5076954;28;20456;-68
2021/05/13 10:00:34;;;;;;;12.93;7.38;;;;;;;;;;5074700;28;20433;-68
2021/05/13 10:03:01;;;;;;;12.40;8.20;;;;;;;;;;5077704;28;20496;-67
2021/05/13 10:05:28;;;;;;;14.03;9.33;;;;;;;;;;5081766;28;20397;-67
2021/05/13 10:07:54;;;;;;;14.30;8.68;;;;;;;;;;5090468;28;20366;-67
2021/05/13 10:10:21;;;;;;;13.13;8.23;;;;;;;;;;5077293;28;20374;-68
2021/05/13 10:12:47;;;;;;;14.95;8.07;;;;;;;;;;5084212;28;20400;-68
2021/05/13 10:15:16;;;;;;;12.40;7.37;;;;;;;;;;5077011;28;20553;-68
2021/05/13 10:17:43;;;;;;;11.82;6.82;;;;;;;;;;5087531;28;20401;-68
2021/05/13 10:20:10;;;;;;;10.20;6.68;;;;;;;;;;5077921;28;20386;-68
2021/05/13 10:22:36;;;;;;;10.75;6.30;;;;;;;;;;5088137;28;20412;-68
2021/05/13 10:25:21;;;;;;;11.50;6.17;;;;;;;;;;5084932;28;20539;-68
2021/05/13 10:28:08;;;;;;;12.98;6.55;;;;;;;;;;5081312;28;21169;-68
2021/05/13 10:30:35;;;;;;;9.07;6.07;;;;;;;;;;5074636;28;20405;-67
2021/05/13 10:33:06;;;;;;;12.73;7.22;;;;;;;;;;5072250;28;20909;-68
2021/05/13 10:35:32;;;;;;;13.48;8.18;;;;;;;;;;5086992;28;20422;-67
2021/05/13 10:38:01;;;;;;;16.60;8.13;;;;;;;;;;5074391;28;20483;-68
2021/05/13 10:40:41;;;;;;;14.77;8.70;;;;;;;;;;5082193;28;20494;-68
2021/05/13 10:43:07;;;;;;;15.07;8.60;;;;;;;;;;5078242;28;20407;-68
2021/05/13 10:45:41;;;;;;;14.10;9.00;;;;;;;;;;5073005;28;20386;-68
2021/05/13 10:48:18;;;;;;;16.02;8.35;;;;;;;;;;5083513;28;20390;-68
2021/05/13 10:50:52;;;;;;;13.93;7.87;;;;;;;;;;5084077;28;20444;-68
2021/05/13 10:53:47;;;;;;;14.00;7.35;;;;;;;;;;5078509;28;20485;-68
2021/05/13 10:56:16;;;;;;;19.42;7.97;;;;;;;;;;5083190;28;20458;-69
2021/05/13 10:59:03;;;;;;;12.93;8.05;;;;;;;;;;5080302;28;20407;-69
2021/05/13 11:01:29;;;;;;;13.75;8.27;;;;;;;;;;5074856;28;20476;-68
2021/05/13 11:04:15;;;;;;;13.30;7.97;;;;;;;;;;5078121;28;20406;-68
2021/05/13 11:06:44;;;;;;;14.10;8.10;;;;;;;;;;5080528;28;20398;-68
2021/05/13 11:09:10;;;;;;;12.85;7.45;;;;;;;;;;5076457;28;20593;-69
2021/05/13 11:12:05;;;;;;;12.87;7.80;;;;;;;;;;5080760;28;20397;-67
2021/05/13 11:14:32;;;;;;;14.32;7.80;;;;;;;;;;5074167;28;20424;-68
2021/05/13 11:17:01;;;;;;;14.32;8.13;;;;;;;;;;5078912;28;21851;-68
2021/05/13 11:19:30;;;;;;;12.98;7.47;;;;;;;;;;5084697;28;20870;-69
2021/05/13 11:21:57;;;;;;;16.87;8.23;;;;;;;;;;5080129;28;20882;-69
2021/05/13 11:24:24;;;;;;;10.20;6.88;;;;;;;;;;5074966;28;20408;-68
2021/05/13 11:26:56;;;;;;;11.00;7.28;;;;;;;;;;5077023;28;20398;-68
2021/05/13 11:29:22;;;;;;;13.48;7.30;;;;;;;;;;5071648;28;20425;-68
2021/05/13 11:31:52;;;;;;;13.60;6.93;;;;;;;;;;5071976;28;20393;-68
2021/05/13 11:34:21;;;;;;;14.35;7.25;;;;;;;;;;5070355;28;20420;-67
2021/05/13 11:36:47;;;;;;;13.85;7.40;;;;;;;;;;5067420;28;21083;-68
2021/05/13 11:39:17;;;;;;;11.98;6.97;;;;;;;;;;5070794;28;20421;-68
2021/05/13 11:41:45;;;;;;;13.30;7.03;;;;;;;;;;5070630;28;20407;-68
2021/05/13 11:44:11;;;;;;;10.53;6.43;;;;;;;;;;5076598;28;20476;-68
2021/05/13 11:46:38;;;;;;;10.98;6.22;;;;;;;;;;5069838;28;20425;-69
2021/05/13 11:49:05;;;;;;;11.35;6.25;;;;;;;;;;5072513;28;20390;-68
2021/05/13 11:51:32;;;;;;;10.35;6.07;;;;;;;;;;5072022;28;20481;-68
2021/05/13 11:53:59;;;;;;;12.90;6.43;;;;;;;;;;5070931;28;20513;-68
2021/05/13 11:56:26;;;;;;;13.33;7.00;;;;;;;;;;5071133;28;20394;-68
2021/05/13 11:58:56;;;;;;;12.93;6.38;;;;;;;;;;5071912;28;20401;-71
2021/05/13 12:01:22;;;;;;;11.33;6.70;;;;;;;;;;5080924;28;20757;-68
2021/05/13 12:03:50;;;;;;;12.82;6.43;;;;;;;;;;5084436;28;20535;-67
2021/05/13 12:06:16;;;;;;;12.23;6.20;;;;;;;;;;5075255;28;20785;-68
2021/05/13 12:08:42;;;;;;;12.20;6.23;;;;;;;;;;5075899;28;20394;-68
2021/05/13 12:11:21;;;;;;;13.63;6.10;;;;;;;;;;5069693;28;20403;-68
2021/05/13 12:13:48;;;;;;;13.07;5.95;;;;;;;;;;5074094;28;20481;-67
2021/05/13 12:16:14;;;;;;;11.00;5.40;;;;;;;;;;5070976;28;20936;-69
2021/05/13 12:18:42;;;;;;;10.10;5.55;;;;;;;;;;5070842;28;20460;-68
2021/05/13 12:21:08;;;;;;;13.82;6.32;;;;;;;;;;5073260;28;20398;-68
2021/05/13 12:23:35;;;;;;;10.23;5.35;;;;;;;;;;5073210;28;20782;-68
2021/05/13 12:26:01;;;;;;;13.43;5.50;;;;;;;;;;5074011;28;20419;-67
2021/05/13 12:28:27;;;;;;;10.60;5.35;;;;;;;;;;5070915;28;20395;-68
2021/05/13 12:30:54;;;;;;;11.23;5.30;;;;;;;;;;5071275;28;20405;-68
2021/05/13 12:33:21;;;;;;;11.63;4.78;;;;;;;;;;5072148;28;20729;-67
2021/05/13 12:35:50;;;;;;;11.27;4.38;;;;;;;;;;5074672;28;20428;-67
2021/05/13 12:38:20;;;;;;;9.40;4.45;;;;;;;;;;5072883;28;20494;-68
2021/05/13 12:40:46;;;;;;;7.78;4.40;;;;;;;;;;5075377;28;20736;-67
2021/05/13 12:43:16;;;;;;;8.95;4.13;;;;;;;;;;5072469;28;20410;-68
2021/05/13 12:45:43;;;;;;;9.88;4.88;;;;;;;;;;5070085;28;20400;-69
2021/05/13 12:48:09;;;;;;;12.68;5.05;;;;;;;;;;5070944;28;20379;-68
2021/05/13 12:50:36;;;;;;;9.48;4.50;;;;;;;;;;5073930;28;20460;-68
2021/05/13 12:53:08;;;;;;;12.18;4.55;;;;;;;;;;5066925;28;20406;-69
2021/05/13 12:55:39;;;;;;;10.98;4.75;;;;;;;;;;5067571;28;20451;-68
2021/05/13 12:58:11;;;;;;;10.50;4.80;;;;;;;;;;5072066;28;20931;-67
2021/05/13 13:00:39;;;;;;;10.68;5.00;;;;;;;;;;5075012;28;20394;-67
2021/05/13 13:03:06;;;;;;;10.55;4.70;;;;;;;;;;5081641;28;20900;-67
2021/05/13 13:05:32;;;;;;;8.75;4.30;;;;;;;;;;5068848;28;20402;-67
2021/05/13 13:07:58;;;;;;;9.75;4.25;;;;;;;;;;5071493;28;20773;-67
2021/05/13 13:10:31;;;;;;;10.85;4.60;;;;;;;;;;5085728;28;20468;-67
2021/05/13 13:13:15;;;;;;;9.95;3.90;;;;;;;;;;5074912;28;20399;-68
2021/05/13 13:15:51;;;;;;;9.43;4.20;;;;;;;;;;5075486;28;20795;-68
2021/05/13 13:18:18;;;;;;;8.43;3.70;;;;;;;;;;5084798;28;20397;-68
2021/05/13 13:20:45;;;;;;;9.03;3.90;;;;;;;;;;5079006;28;20490;-68
2021/05/13 13:23:20;;;;;;;9.25;3.60;;;;;;;;;;5080689;28;20396;-68
2021/05/13 13:25:46;;;;;;;8.52;3.47;;;;;;;;;;5078786;28;20444;-68
2021/05/13 13:28:14;;;;;;;8.30;3.57;;;;;;;;;;5087334;28;20386;-68
2021/05/13 13:30:40;;;;;;;8.18;3.38;;;;;;;;;;5087538;28;20868;-68
2021/05/13 13:33:13;;;;;;;7.80;3.35;;;;;;;;;;5083493;28;20412;-68
2021/05/13 13:35:40;;;;;;;7.70;3.63;;;;;;;;;;5084844;28;20855;-68
2021/05/13 13:38:08;;;;;;;7.82;3.60;;;;;;;;;;5082462;28;20415;-68
2021/05/13 13:40:34;;;;;;;9.60;3.63;;;;;;;;;;5086630;28;20423;-68
2021/05/13 13:43:00;;;;;;;;;;;;;;;;;;5076041;28;20390;-68
2021/05/13 13:45:26;;;;;;;;;;;;;;;;;;5080293;28;19916;-68
2021/05/13 13:47:52;;;;;;;;;;;;;;;;;;5076590;28;20128;-68
2021/05/13 13:50:18;;;;;;;;;;;;;;;;;;5089080;28;19912;-69
2021/05/13 13:52:44;;;;;;;;;;;;;;;;;;5090626;28;19923;-70
2021/05/13 13:55:10;;;;;;;;;;;;;;;;;;5080596;28;20986;-69
2021/05/13 13:57:36;;;;;;;;;;;;;;;;;;5082155;28;19916;-68
2021/05/13 14:00:02;;;;;;;;;;;;;;;;;;5079490;28;20327;-68
2021/05/13 14:02:28;;;;;;;;;;;;;;;;;;5080100;28;19908;-68
2021/05/13 14:04:53;;;;;;;;;;;;;;;;;;5091854;28;20228;-68
2021/05/13 14:07:19;;;;;;;;;;;;;;;;;;5092753;28;19992;-68
2021/05/13 14:09:45;;;;;;;;;;;;;;;;;;5092248;28;19915;-69
2021/05/13 14:12:11;;;;;;;;;;;;;;;;;;5091429;28;19955;-68
2021/05/13 14:14:37;;;;;;;;;;;;;;;;;;5081275;28;20334;-68
2021/05/13 14:17:03;;;;;;;;;;;;;;;;;;5090662;28;19919;-68
2021/05/13 14:19:29;;;;;;;;;;;;;;;;;;5090761;28;19912;-68
2021/05/13 14:21:54;;;;;;;;;;;;;;;;;;5083278;28;20563;-68
2021/05/13 14:24:20;;;;;;;;;;;;;;;;;;5084262;28;19969;-68
2021/05/13 14:26:46;;;;;;;;;;;;;;;;;;5084249;28;19918;-69
2021/05/13 14:29:12;;;;;;;;;;;;;;;;;;5080096;28;19962;-68
2021/05/13 14:31:38;;;;;;;;;;;;;;;;;;5079641;28;19912;-68
2021/05/13 14:34:04;;;;;;;;;;;;;;;;;;5089815;28;19916;-68
2021/05/13 14:36:30;;;;;;;;;;;;;;;;;;5086076;28;20518;-68
2021/05/13 14:38:56;;;;;;;;;;;;;;;;;;5087005;28;20456;-68
2021/05/13 14:41:21;;;;;;;;;;;;;;;;;;5079372;28;19912;-68
2021/05/13 14:43:47;;;;;;;;;;;;;;;;;;5082383;28;19908;-68
2021/05/13 14:46:13;;;;;;;;;;;;;;;;;;5089668;28;19986;-68
2021/05/13 14:51:08;;;;;;;;;;;;;;;;;;5079036;28;19946;-68
2021/05/13 14:53:34;;;;;;;;;;;;;;;;;;5085693;28;19959;-68
2021/05/13 14:56:00;;;;;;;;;;;;;;;;;;5077011;28;20347;-68
2021/05/13 14:58:26;;;;;;;;;;;;;;;;;;5087506;28;20549;-68
2021/05/13 15:00:54;;;;;;;;;;;;;;;;;;5079085;28;20369;-68
2021/05/13 15:03:20;;;;;;;;;;;;;;;;;;5083264;28;20354;-68